createdAt,value
2022-08-26T00:00:41.357Z,87.1
2022-08-26T00:20:41.365Z,87.6
2022-08-26T00:40:41.182Z,87.9
2022-08-26T01:00:41.142Z,87.7
2022-08-26T01:20:41.036Z,88.3
2022-08-26T01:40:41.015Z,88.3
2022-08-26T02:00:41.040Z,89.1
2022-08-26T02:20:40.960Z,89.4
2022-08-26T02:40:40.842Z,89.2
2022-08-26T03:00:52.715Z,89.3
2022-08-26T03:20:40.742Z,90.2
2022-08-26T03:40:40.702Z,90.5
2022-08-26T04:00:40.639Z,90.8
2022-08-26T04:20:40.723Z,90.6
2022-08-26T04:40:40.579Z,90.9
2022-08-26T05:00:40.600Z,91.3
2022-08-26T05:20:40.463Z,90.1
2022-08-26T05:40:40.487Z,86.8
2022-08-26T06:00:40.372Z,77.9
2022-08-26T06:20:40.324Z,76
2022-08-26T06:40:40.275Z,73.3
2022-08-26T07:00:40.243Z,72.5
2022-08-26T07:20:40.194Z,72.2
2022-08-26T07:40:40.218Z,67.6
2022-08-26T08:00:40.055Z,65.8
2022-08-26T08:20:42.270Z,69.7
2022-08-26T08:40:39.968Z,68.6
2022-08-26T09:00:40.059Z,70.6
2022-08-26T09:20:39.873Z,72
2022-08-26T09:40:39.811Z,68.4
2022-08-26T10:00:39.771Z,68.1
2022-08-26T10:20:39.700Z,67.5
2022-08-26T10:40:39.775Z,73.9
2022-08-26T11:00:39.791Z,81.8
2022-08-26T11:20:41.685Z,73.2
2022-08-26T11:40:39.551Z,79
2022-08-26T12:00:39.445Z,82.6
2022-08-26T12:20:39.403Z,86.6
2022-08-26T12:40:39.345Z,83.5
2022-08-26T13:00:39.488Z,86.6
2022-08-26T13:20:39.283Z,85.1
2022-08-26T13:40:39.256Z,87.6
2022-08-26T14:00:39.183Z,92.3
2022-08-26T14:20:39.124Z,93
2022-08-26T14:40:39.136Z,92.5
2022-08-26T15:00:39.042Z,93.3
2022-08-26T15:20:38.986Z,94.2
2022-08-26T15:40:39.076Z,94
2022-08-26T16:00:38.947Z,93.7
2022-08-26T16:20:38.825Z,94.2
2022-08-26T16:40:38.845Z,94.8
2022-08-26T17:00:38.705Z,94.9
2022-08-26T17:20:38.699Z,95.2
2022-08-26T17:40:38.615Z,95.5
2022-08-26T18:00:38.586Z,95.8
2022-08-26T18:20:38.528Z,95.8
2022-08-26T18:40:38.504Z,95.8
2022-08-26T19:00:38.395Z,95.8
2022-08-26T19:20:38.370Z,95.9
2022-08-26T19:40:38.348Z,95.9
2022-08-26T20:00:38.252Z,96
2022-08-26T20:20:38.328Z,96
2022-08-26T20:40:38.191Z,95.9
2022-08-26T21:00:38.165Z,96
2022-08-26T21:20:38.104Z,96
2022-08-26T21:40:38.045Z,96
2022-08-26T22:00:38.074Z,96
2022-08-26T22:20:37.924Z,96.1
2022-08-26T22:40:37.881Z,96.1
2022-08-26T23:00:37.875Z,96.1
2022-08-26T23:20:37.784Z,96.1
2022-08-26T23:40:37.783Z,96.1
